sensor_id;sensor_type;location;lat;lon;timestamp;P1;durP1;ratioP1;P2;durP2;ratioP2
6547;SDS011;3307;52.416;16.862;2023-03-23T00:01:19;18.80;;;15.80;;
6547;SDS011;3307;52.416;16.862;2023-03-23T00:03:46;21.58;;;15.73;;
6547;SDS011;3307;52.416;16.862;2023-03-23T00:06:13;17.88;;;14.82;;
6547;SDS011;3307;52.416;16.862;2023-03-23T00:08:46;17.38;;;14.13;;
6547;SDS011;3307;52.416;16.862;2023-03-23T00:11:17;16.40;;;14.63;;
6547;SDS011;3307;52.416;16.862;2023-03-23T00:13:44;18.33;;;14.68;;
6547;SDS011;3307;52.416;16.862;2023-03-23T00:16:13;17.77;;;14.93;;
6547;SDS011;3307;52.416;16.862;2023-03-23T00:18:51;18.33;;;15.02;;
6547;SDS011;3307;52.416;16.862;2023-03-23T00:21:24;17.63;;;14.90;;
6547;SDS011;3307;52.416;16.862;2023-03-23T00:24:08;15.43;;;13.48;;
6547;SDS011;3307;52.416;16.862;2023-03-23T00:26:36;17.70;;;14.43;;
6547;SDS011;3307;52.416;16.862;2023-03-23T00:29:06;17.08;;;15.02;;
6547;SDS011;3307;52.416;16.862;2023-03-23T00:31:32;17.20;;;15.40;;
6547;SDS011;3307;52.416;16.862;2023-03-23T00:34:00;17.27;;;14.45;;
6547;SDS011;3307;52.416;16.862;2023-03-23T00:36:28;18.15;;;14.95;;
6547;SDS011;3307;52.416;16.862;2023-03-23T00:38:55;21.10;;;15.18;;
6547;SDS011;3307;52.416;16.862;2023-03-23T00:41:24;16.33;;;14.20;;
6547;SDS011;3307;52.416;16.862;2023-03-23T00:43:52;15.95;;;14.35;;
6547;SDS011;3307;52.416;16.862;2023-03-23T00:46:18;19.90;;;14.65;;
6547;SDS011;3307;52.416;16.862;2023-03-23T00:48:45;18.05;;;15.10;;
6547;SDS011;3307;52.416;16.862;2023-03-23T00:51:12;19.85;;;15.70;;
6547;SDS011;3307;52.416;16.862;2023-03-23T00:53:40;18.40;;;14.70;;
6547;SDS011;3307;52.416;16.862;2023-03-23T00:56:07;20.02;;;14.95;;
6547;SDS011;3307;52.416;16.862;2023-03-23T00:58:33;18.05;;;14.55;;
6547;SDS011;3307;52.416;16.862;2023-03-23T01:00:58;15.97;;;14.30;;
6547;SDS011;3307;52.416;16.862;2023-03-23T01:03:24;16.63;;;14.67;;
6547;SDS011;3307;52.416;16.862;2023-03-23T01:05:50;18.00;;;13.93;;
6547;SDS011;3307;52.416;16.862;2023-03-23T01:08:16;14.75;;;13.07;;
6547;SDS011;3307;52.416;16.862;2023-03-23T01:10:43;14.90;;;13.35;;
6547;SDS011;3307;52.416;16.862;2023-03-23T01:13:09;15.67;;;13.30;;
6547;SDS011;3307;52.416;16.862;2023-03-23T01:15:35;17.00;;;15.07;;
6547;SDS011;3307;52.416;16.862;2023-03-23T01:18:01;20.00;;;16.63;;
6547;SDS011;3307;52.416;16.862;2023-03-23T01:20:26;20.13;;;17.70;;
6547;SDS011;3307;52.416;16.862;2023-03-23T01:22:53;18.13;;;16.08;;
6547;SDS011;3307;52.416;16.862;2023-03-23T01:25:25;16.83;;;14.93;;
6547;SDS011;3307;52.416;16.862;2023-03-23T01:27:54;18.92;;;15.20;;
6547;SDS011;3307;52.416;16.862;2023-03-23T01:30:20;18.03;;;14.93;;
6547;SDS011;3307;52.416;16.862;2023-03-23T01:32:46;18.17;;;16.13;;
6547;SDS011;3307;52.416;16.862;2023-03-23T01:35:15;17.40;;;15.00;;
6547;SDS011;3307;52.416;16.862;2023-03-23T01:37:41;18.38;;;16.52;;
6547;SDS011;3307;52.416;16.862;2023-03-23T01:40:07;20.30;;;16.60;;
6547;SDS011;3307;52.416;16.862;2023-03-23T01:42:34;18.20;;;16.23;;
6547;SDS011;3307;52.416;16.862;2023-03-23T01:47:44;22.05;;;19.73;;
6547;SDS011;3307;52.416;16.862;2023-03-23T01:50:31;24.58;;;18.05;;
6547;SDS011;3307;52.416;16.862;2023-03-23T01:53:01;24.58;;;19.65;;
6547;SDS011;3307;52.416;16.862;2023-03-23T01:55:33;21.35;;;19.20;;
6547;SDS011;3307;52.416;16.862;2023-03-23T01:58:00;24.10;;;20.20;;
6547;SDS011;3307;52.416;16.862;2023-03-23T02:00:25;21.77;;;19.47;;
6547;SDS011;3307;52.416;16.862;2023-03-23T02:02:51;28.33;;;20.90;;
6547;SDS011;3307;52.416;16.862;2023-03-23T02:05:28;24.27;;;19.65;;
6547;SDS011;3307;52.416;16.862;2023-03-23T02:07:57;28.15;;;20.50;;
6547;SDS011;3307;52.416;16.862;2023-03-23T02:10:29;24.80;;;20.90;;
6547;SDS011;3307;52.416;16.862;2023-03-23T02:12:55;27.90;;;21.40;;
6547;SDS011;3307;52.416;16.862;2023-03-23T02:15:21;26.70;;;19.70;;
6547;SDS011;3307;52.416;16.862;2023-03-23T02:17:57;22.80;;;19.70;;
6547;SDS011;3307;52.416;16.862;2023-03-23T02:34:17;26.08;;;20.98;;
6547;SDS011;3307;52.416;16.862;2023-03-23T02:37:13;22.25;;;19.95;;
6547;SDS011;3307;52.416;16.862;2023-03-23T02:39:47;26.00;;;21.40;;
6547;SDS011;3307;52.416;16.862;2023-03-23T02:42:17;26.20;;;21.63;;
6547;SDS011;3307;52.416;16.862;2023-03-23T02:44:46;24.40;;;19.70;;
6547;SDS011;3307;52.416;16.862;2023-03-23T02:47:14;23.38;;;20.67;;
6547;SDS011;3307;52.416;16.862;2023-03-23T02:49:42;23.02;;;20.40;;
6547;SDS011;3307;52.416;16.862;2023-03-23T02:52:14;21.83;;;19.50;;
6547;SDS011;3307;52.416;16.862;2023-03-23T02:54:44;22.35;;;19.58;;
6547;SDS011;3307;52.416;16.862;2023-03-23T02:57:11;21.83;;;18.80;;
6547;SDS011;3307;52.416;16.862;2023-03-23T02:59:37;21.93;;;19.60;;
6547;SDS011;3307;52.416;16.862;2023-03-23T03:04:36;21.65;;;18.13;;
6547;SDS011;3307;52.416;16.862;2023-03-23T03:09:38;20.60;;;17.30;;
6547;SDS011;3307;52.416;16.862;2023-03-23T03:12:18;22.08;;;18.17;;
6547;SDS011;3307;52.416;16.862;2023-03-23T03:17:58;19.20;;;16.55;;
6547;SDS011;3307;52.416;16.862;2023-03-23T03:20:28;16.95;;;15.15;;
6547;SDS011;3307;52.416;16.862;2023-03-23T03:22:54;17.70;;;15.27;;
6547;SDS011;3307;52.416;16.862;2023-03-23T03:25:21;17.75;;;14.82;;
6547;SDS011;3307;52.416;16.862;2023-03-23T03:27:48;16.45;;;14.77;;
6547;SDS011;3307;52.416;16.862;2023-03-23T03:30:18;15.68;;;14.02;;
6547;SDS011;3307;52.416;16.862;2023-03-23T03:32:47;17.70;;;16.00;;
6547;SDS011;3307;52.416;16.862;2023-03-23T03:35:14;17.20;;;15.45;;
6547;SDS011;3307;52.416;16.862;2023-03-23T03:37:40;17.45;;;15.35;;
6547;SDS011;3307;52.416;16.862;2023-03-23T03:40:08;18.20;;;16.40;;
6547;SDS011;3307;52.416;16.862;2023-03-23T03:42:36;17.58;;;15.68;;
6547;SDS011;3307;52.416;16.862;2023-03-23T03:45:03;16.85;;;15.15;;
6547;SDS011;3307;52.416;16.862;2023-03-23T03:47:28;20.33;;;16.00;;
6547;SDS011;3307;52.416;16.862;2023-03-23T03:49:54;16.10;;;14.50;;
6547;SDS011;3307;52.416;16.862;2023-03-23T03:52:19;16.73;;;14.87;;
6547;SDS011;3307;52.416;16.862;2023-03-23T03:54:45;16.77;;;13.73;;
6547;SDS011;3307;52.416;16.862;2023-03-23T03:57:12;15.75;;;14.25;;
6547;SDS011;3307;52.416;16.862;2023-03-23T03:59:37;14.17;;;12.77;;
6547;SDS011;3307;52.416;16.862;2023-03-23T04:02:03;15.43;;;13.83;;
6547;SDS011;3307;52.416;16.862;2023-03-23T04:04:29;14.00;;;12.60;;
6547;SDS011;3307;52.416;16.862;2023-03-23T04:06:54;14.80;;;13.40;;
6547;SDS011;3307;52.416;16.862;2023-03-23T04:09:20;13.63;;;12.07;;
6547;SDS011;3307;52.416;16.862;2023-03-23T04:11:46;13.50;;;12.10;;
6547;SDS011;3307;52.416;16.862;2023-03-23T04:14:11;14.43;;;12.93;;
6547;SDS011;3307;52.416;16.862;2023-03-23T04:16:37;14.43;;;11.50;;
6547;SDS011;3307;52.416;16.862;2023-03-23T04:19:02;12.30;;;11.10;;
6547;SDS011;3307;52.416;16.862;2023-03-23T04:21:28;17.60;;;12.40;;
6547;SDS011;3307;52.416;16.862;2023-03-23T04:23:55;15.00;;;12.50;;
6547;SDS011;3307;52.416;16.862;2023-03-23T04:26:25;11.57;;;10.38;;
6547;SDS011;3307;52.416;16.862;2023-03-23T04:28:55;9.27;;;8.48;;
6547;SDS011;3307;52.416;16.862;2023-03-23T04:31:22;10.70;;;7.63;;
6547;SDS011;3307;52.416;16.862;2023-03-23T04:33:49;7.40;;;6.30;;
6547;SDS011;3307;52.416;16.862;2023-03-23T04:36:17;6.05;;;5.45;;
6547;SDS011;3307;52.416;16.862;2023-03-23T04:38:43;9.40;;;6.22;;
6547;SDS011;3307;52.416;16.862;2023-03-23T04:41:08;7.73;;;6.07;;
6547;SDS011;3307;52.416;16.862;2023-03-23T04:43:34;6.17;;;5.57;;
6547;SDS011;3307;52.416;16.862;2023-03-23T04:46:06;5.60;;;5.10;;
6547;SDS011;3307;52.416;16.862;2023-03-23T04:48:34;5.90;;;5.30;;
6547;SDS011;3307;52.416;16.862;2023-03-23T04:51:03;6.15;;;5.60;;
6547;SDS011;3307;52.416;16.862;2023-03-23T04:53:29;6.97;;;4.88;;
6547;SDS011;3307;52.416;16.862;2023-03-23T04:55:55;5.57;;;5.07;;
6547;SDS011;3307;52.416;16.862;2023-03-23T04:58:21;6.87;;;5.77;;
6547;SDS011;3307;52.416;16.862;2023-03-23T05:00:48;5.78;;;5.18;;
6547;SDS011;3307;52.416;16.862;2023-03-23T05:03:18;5.97;;;5.15;;
6547;SDS011;3307;52.416;16.862;2023-03-23T05:05:44;5.95;;;5.45;;
6547;SDS011;3307;52.416;16.862;2023-03-23T05:08:20;5.88;;;4.95;;
6547;SDS011;3307;52.416;16.862;2023-03-23T05:10:53;7.90;;;6.10;;
6547;SDS011;3307;52.416;16.862;2023-03-23T05:13:22;7.15;;;5.50;;
6547;SDS011;3307;52.416;16.862;2023-03-23T05:15:48;7.10;;;5.10;;
6547;SDS011;3307;52.416;16.862;2023-03-23T05:18:14;7.80;;;5.50;;
6547;SDS011;3307;52.416;16.862;2023-03-23T05:20:39;5.77;;;5.13;;
6547;SDS011;3307;52.416;16.862;2023-03-23T05:23:06;7.35;;;5.30;;
6547;SDS011;3307;52.416;16.862;2023-03-23T05:25:32;5.83;;;5.10;;
6547;SDS011;3307;52.416;16.862;2023-03-23T05:28:01;6.82;;;5.07;;
6547;SDS011;3307;52.416;16.862;2023-03-23T05:30:27;10.30;;;5.07;;
6547;SDS011;3307;52.416;16.862;2023-03-23T05:32:53;5.30;;;4.60;;
6547;SDS011;3307;52.416;16.862;2023-03-23T05:35:18;5.43;;;4.90;;
6547;SDS011;3307;52.416;16.862;2023-03-23T05:37:45;4.85;;;4.38;;
6547;SDS011;3307;52.416;16.862;2023-03-23T05:40:10;4.67;;;4.27;;
6547;SDS011;3307;52.416;16.862;2023-03-23T05:42:37;5.18;;;4.55;;
6547;SDS011;3307;52.416;16.862;2023-03-23T05:45:03;5.10;;;4.38;;
6547;SDS011;3307;52.416;16.862;2023-03-23T05:47:30;6.65;;;4.82;;
6547;SDS011;3307;52.416;16.862;2023-03-23T05:49:55;5.20;;;4.70;;
6547;SDS011;3307;52.416;16.862;2023-03-23T05:52:21;8.40;;;5.50;;
6547;SDS011;3307;52.416;16.862;2023-03-23T05:54:49;8.00;;;6.40;;
6547;SDS011;3307;52.416;16.862;2023-03-23T05:57:14;7.27;;;5.83;;
6547;SDS011;3307;52.416;16.862;2023-03-23T05:59:40;5.20;;;4.70;;
6547;SDS011;3307;52.416;16.862;2023-03-23T06:02:05;6.23;;;4.27;;
6547;SDS011;3307;52.416;16.862;2023-03-23T06:04:31;5.13;;;4.43;;
6547;SDS011;3307;52.416;16.862;2023-03-23T06:07:02;6.03;;;4.90;;
6547;SDS011;3307;52.416;16.862;2023-03-23T06:09:28;4.60;;;4.20;;
6547;SDS011;3307;52.416;16.862;2023-03-23T06:11:54;4.20;;;3.80;;
6547;SDS011;3307;52.416;16.862;2023-03-23T06:14:19;5.07;;;4.23;;
6547;SDS011;3307;52.416;16.862;2023-03-23T06:16:45;6.27;;;4.10;;
6547;SDS011;3307;52.416;16.862;2023-03-23T06:19:10;6.03;;;4.83;;
6547;SDS011;3307;52.416;16.862;2023-03-23T06:21:36;5.73;;;3.80;;
6547;SDS011;3307;52.416;16.862;2023-03-23T06:24:02;6.17;;;4.70;;
6547;SDS011;3307;52.416;16.862;2023-03-23T06:26:38;4.07;;;3.70;;
6547;SDS011;3307;52.416;16.862;2023-03-23T06:29:06;4.20;;;3.80;;
6547;SDS011;3307;52.416;16.862;2023-03-23T06:31:37;4.13;;;3.60;;
6547;SDS011;3307;52.416;16.862;2023-03-23T06:34:04;7.03;;;3.92;;
6547;SDS011;3307;52.416;16.862;2023-03-23T06:36:29;4.97;;;3.07;;
6547;SDS011;3307;52.416;16.862;2023-03-23T06:38:55;5.10;;;3.43;;
6547;SDS011;3307;52.416;16.862;2023-03-23T06:41:20;8.10;;;4.23;;
6547;SDS011;3307;52.416;16.862;2023-03-23T06:43:46;4.57;;;3.83;;
6547;SDS011;3307;52.416;16.862;2023-03-23T06:46:12;4.60;;;3.80;;
6547;SDS011;3307;52.416;16.862;2023-03-23T06:48:37;5.23;;;4.50;;
6547;SDS011;3307;52.416;16.862;2023-03-23T06:51:03;7.20;;;3.40;;
6547;SDS011;3307;52.416;16.862;2023-03-23T06:53:29;5.10;;;4.60;;
6547;SDS011;3307;52.416;16.862;2023-03-23T06:55:55;7.33;;;3.80;;
6547;SDS011;3307;52.416;16.862;2023-03-23T06:58:21;7.57;;;4.00;;
6547;SDS011;3307;52.416;16.862;2023-03-23T07:00:47;3.80;;;3.20;;
6547;SDS011;3307;52.416;16.862;2023-03-23T07:03:12;5.77;;;4.00;;
6547;SDS011;3307;52.416;16.862;2023-03-23T07:05:38;3.47;;;2.90;;
6547;SDS011;3307;52.416;16.862;2023-03-23T07:08:03;4.37;;;3.63;;
6547;SDS011;3307;52.416;16.862;2023-03-23T07:10:29;4.00;;;3.33;;
6547;SDS011;3307;52.416;16.862;2023-03-23T07:12:55;4.37;;;3.77;;
6547;SDS011;3307;52.416;16.862;2023-03-23T07:15:21;5.60;;;4.27;;
6547;SDS011;3307;52.416;16.862;2023-03-23T07:17:47;7.17;;;4.33;;
6547;SDS011;3307;52.416;16.862;2023-03-23T07:20:13;5.60;;;3.90;;
6547;SDS011;3307;52.416;16.862;2023-03-23T07:22:39;5.28;;;4.05;;
6547;SDS011;3307;52.416;16.862;2023-03-23T07:25:05;4.43;;;3.60;;
6547;SDS011;3307;52.416;16.862;2023-03-23T07:27:30;5.23;;;4.10;;
6547;SDS011;3307;52.416;16.862;2023-03-23T07:29:56;7.00;;;4.37;;
6547;SDS011;3307;52.416;16.862;2023-03-23T07:32:23;6.20;;;4.07;;
6547;SDS011;3307;52.416;16.862;2023-03-23T07:34:49;6.53;;;3.73;;
6547;SDS011;3307;52.416;16.862;2023-03-23T07:37:14;5.97;;;4.47;;
6547;SDS011;3307;52.416;16.862;2023-03-23T07:39:40;5.37;;;4.57;;
6547;SDS011;3307;52.416;16.862;2023-03-23T07:42:07;4.90;;;4.30;;
6547;SDS011;3307;52.416;16.862;2023-03-23T07:44:33;4.70;;;4.13;;
6547;SDS011;3307;52.416;16.862;2023-03-23T07:46:59;7.90;;;4.30;;
6547;SDS011;3307;52.416;16.862;2023-03-23T07:49:24;6.53;;;4.63;;
6547;SDS011;3307;52.416;16.862;2023-03-23T07:51:51;5.27;;;4.10;;
6547;SDS011;3307;52.416;16.862;2023-03-23T07:54:17;4.93;;;4.07;;
6547;SDS011;3307;52.416;16.862;2023-03-23T07:56:42;5.60;;;3.87;;
6547;SDS011;3307;52.416;16.862;2023-03-23T07:59:10;7.57;;;4.30;;
6547;SDS011;3307;52.416;16.862;2023-03-23T08:01:36;6.03;;;4.60;;
6547;SDS011;3307;52.416;16.862;2023-03-23T08:04:01;9.43;;;5.93;;
6547;SDS011;3307;52.416;16.862;2023-03-23T08:06:27;6.23;;;5.40;;
6547;SDS011;3307;52.416;16.862;2023-03-23T08:08:52;5.40;;;4.60;;
6547;SDS011;3307;52.416;16.862;2023-03-23T08:11:19;7.47;;;4.87;;
6547;SDS011;3307;52.416;16.862;2023-03-23T08:13:47;8.43;;;4.70;;
6547;SDS011;3307;52.416;16.862;2023-03-23T08:16:13;5.50;;;3.43;;
6547;SDS011;3307;52.416;16.862;2023-03-23T08:18:38;6.00;;;4.27;;
6547;SDS011;3307;52.416;16.862;2023-03-23T08:21:04;6.37;;;3.90;;
6547;SDS011;3307;52.416;16.862;2023-03-23T08:23:33;6.17;;;3.77;;
6547;SDS011;3307;52.416;16.862;2023-03-23T08:25:59;7.07;;;3.80;;
6547;SDS011;3307;52.416;16.862;2023-03-23T08:28:25;4.07;;;3.60;;
6547;SDS011;3307;52.416;16.862;2023-03-23T08:30:50;4.43;;;3.70;;
6547;SDS011;3307;52.416;16.862;2023-03-23T08:33:16;5.60;;;3.60;;
6547;SDS011;3307;52.416;16.862;2023-03-23T08:35:42;3.50;;;3.20;;
6547;SDS011;3307;52.416;16.862;2023-03-23T08:38:09;6.10;;;3.50;;
6547;SDS011;3307;52.416;16.862;2023-03-23T08:40:36;7.30;;;3.50;;
6547;SDS011;3307;52.416;16.862;2023-03-23T08:43:02;3.50;;;2.77;;
6547;SDS011;3307;52.416;16.862;2023-03-23T08:45:28;3.73;;;2.50;;
6547;SDS011;3307;52.416;16.862;2023-03-23T08:47:53;8.43;;;3.30;;
6547;SDS011;3307;52.416;16.862;2023-03-23T08:50:24;6.80;;;2.97;;
6547;SDS011;3307;52.416;16.862;2023-03-23T08:52:51;4.03;;;3.20;;
6547;SDS011;3307;52.416;16.862;2023-03-23T08:55:18;4.17;;;3.10;;
6547;SDS011;3307;52.416;16.862;2023-03-23T08:57:44;2.70;;;2.50;;
6547;SDS011;3307;52.416;16.862;2023-03-23T09:00:11;3.73;;;3.23;;
6547;SDS011;3307;52.416;16.862;2023-03-23T09:02:50;3.87;;;2.77;;
6547;SDS011;3307;52.416;16.862;2023-03-23T09:05:18;4.60;;;3.23;;
6547;SDS011;3307;52.416;16.862;2023-03-23T09:07:46;3.90;;;3.23;;
6547;SDS011;3307;52.416;16.862;2023-03-23T09:10:13;6.10;;;4.57;;
6547;SDS011;3307;52.416;16.862;2023-03-23T09:12:39;8.83;;;4.27;;
6547;SDS011;3307;52.416;16.862;2023-03-23T09:15:06;4.30;;;3.83;;
6547;SDS011;3307;52.416;16.862;2023-03-23T09:17:34;5.37;;;3.30;;
6547;SDS011;3307;52.416;16.862;2023-03-23T09:20:01;5.43;;;3.13;;
6547;SDS011;3307;52.416;16.862;2023-03-23T09:22:28;5.20;;;3.00;;
6547;SDS011;3307;52.416;16.862;2023-03-23T09:24:54;4.50;;;3.77;;
6547;SDS011;3307;52.416;16.862;2023-03-23T09:27:19;5.23;;;3.30;;
6547;SDS011;3307;52.416;16.862;2023-03-23T09:29:45;3.13;;;2.80;;
6547;SDS011;3307;52.416;16.862;2023-03-23T09:32:14;5.53;;;3.27;;
6547;SDS011;3307;52.416;16.862;2023-03-23T09:34:40;4.13;;;3.00;;
6547;SDS011;3307;52.416;16.862;2023-03-23T09:37:06;5.33;;;2.43;;
6547;SDS011;3307;52.416;16.862;2023-03-23T09:39:31;4.93;;;2.90;;
6547;SDS011;3307;52.416;16.862;2023-03-23T09:44:51;3.40;;;2.60;;
6547;SDS011;3307;52.416;16.862;2023-03-23T09:47:51;4.07;;;3.20;;
6547;SDS011;3307;52.416;16.862;2023-03-23T09:50:21;5.43;;;2.50;;
6547;SDS011;3307;52.416;16.862;2023-03-23T09:52:53;3.50;;;2.20;;
6547;SDS011;3307;52.416;16.862;2023-03-23T09:55:21;3.70;;;2.50;;
6547;SDS011;3307;52.416;16.862;2023-03-23T09:57:50;5.80;;;1.93;;
6547;SDS011;3307;52.416;16.862;2023-03-23T10:00:39;5.20;;;2.27;;
6547;SDS011;3307;52.416;16.862;2023-03-23T10:03:12;4.63;;;2.10;;
6547;SDS011;3307;52.416;16.862;2023-03-23T10:05:44;2.67;;;1.97;;
6547;SDS011;3307;52.416;16.862;2023-03-23T10:08:15;5.60;;;1.90;;
6547;SDS011;3307;52.416;16.862;2023-03-23T10:13:17;2.80;;;2.20;;
6547;SDS011;3307;52.416;16.862;2023-03-23T10:15:49;2.53;;;1.90;;
6547;SDS011;3307;52.416;16.862;2023-03-23T10:21:00;2.20;;;1.90;;
6547;SDS011;3307;52.416;16.862;2023-03-23T10:29:59;4.45;;;2.20;;
6547;SDS011;3307;52.416;16.862;2023-03-23T10:32:40;2.63;;;2.05;;
6547;SDS011;3307;52.416;16.862;2023-03-23T10:35:09;3.67;;;2.38;;
6547;SDS011;3307;52.416;16.862;2023-03-23T10:37:43;2.65;;;2.45;;
6547;SDS011;3307;52.416;16.862;2023-03-23T10:40:17;3.50;;;2.55;;
6547;SDS011;3307;52.416;16.862;2023-03-23T10:42:45;3.15;;;2.78;;
6547;SDS011;3307;52.416;16.862;2023-03-23T10:47:45;3.60;;;2.50;;
6547;SDS011;3307;52.416;16.862;2023-03-23T10:50:14;4.10;;;2.70;;
6547;SDS011;3307;52.416;16.862;2023-03-23T10:52:42;3.30;;;2.37;;
6547;SDS011;3307;52.416;16.862;2023-03-23T10:57:35;3.40;;;2.60;;
6547;SDS011;3307;52.416;16.862;2023-03-23T11:00:07;3.17;;;2.87;;
6547;SDS011;3307;52.416;16.862;2023-03-23T11:03:04;3.40;;;2.90;;
6547;SDS011;3307;52.416;16.862;2023-03-23T11:05:37;2.80;;;2.50;;
6547;SDS011;3307;52.416;16.862;2023-03-23T11:08:15;5.03;;;2.73;;
6547;SDS011;3307;52.416;16.862;2023-03-23T11:10:53;3.07;;;2.67;;
6547;SDS011;3307;52.416;16.862;2023-03-23T11:13:48;4.63;;;3.00;;
6547;SDS011;3307;52.416;16.862;2023-03-23T11:16:24;3.80;;;2.30;;
6547;SDS011;3307;52.416;16.862;2023-03-23T11:18:52;2.67;;;2.30;;
6547;SDS011;3307;52.416;16.862;2023-03-23T11:21:19;2.93;;;2.60;;
6547;SDS011;3307;52.416;16.862;2023-03-23T11:23:50;4.93;;;2.30;;
6547;SDS011;3307;52.416;16.862;2023-03-23T11:26:22;2.70;;;2.17;;
6547;SDS011;3307;52.416;16.862;2023-03-23T11:31:34;2.30;;;2.10;;
6547;SDS011;3307;52.416;16.862;2023-03-23T11:34:03;2.57;;;2.00;;
6547;SDS011;3307;52.416;16.862;2023-03-23T11:39:27;6.37;;;2.47;;
6547;SDS011;3307;52.416;16.862;2023-03-23T11:41:54;2.30;;;2.10;;
6547;SDS011;3307;52.416;16.862;2023-03-23T11:44:24;7.93;;;3.07;;
6547;SDS011;3307;52.416;16.862;2023-03-23T11:49:52;3.87;;;2.77;;
6547;SDS011;3307;52.416;16.862;2023-03-23T11:58:18;5.57;;;2.60;;
6547;SDS011;3307;52.416;16.862;2023-03-23T12:00:49;4.90;;;3.20;;
6547;SDS011;3307;52.416;16.862;2023-03-23T12:03:22;5.20;;;2.97;;
6547;SDS011;3307;52.416;16.862;2023-03-23T12:06:03;3.60;;;2.40;;
6547;SDS011;3307;52.416;16.862;2023-03-23T12:16:07;4.40;;;2.60;;
6547;SDS011;3307;52.416;16.862;2023-03-23T12:26:31;3.43;;;3.03;;
6547;SDS011;3307;52.416;16.862;2023-03-23T12:44:48;2.80;;;2.27;;
6547;SDS011;3307;52.416;16.862;2023-03-23T12:52:35;2.40;;;2.10;;
6547;SDS011;3307;52.416;16.862;2023-03-23T12:57:52;2.57;;;2.30;;
6547;SDS011;3307;52.416;16.862;2023-03-23T13:00:22;3.77;;;2.50;;
6547;SDS011;3307;52.416;16.862;2023-03-23T13:10:27;3.23;;;2.93;;
6547;SDS011;3307;52.416;16.862;2023-03-23T13:12:54;3.00;;;2.60;;
6547;SDS011;3307;52.416;16.862;2023-03-23T13:23:37;5.77;;;2.50;;
6547;SDS011;3307;52.416;16.862;2023-03-23T13:26:21;2.37;;;1.90;;
6547;SDS011;3307;52.416;16.862;2023-03-23T13:31:25;3.53;;;2.73;;
6547;SDS011;3307;52.416;16.862;2023-03-23T13:34:02;3.27;;;2.87;;
6547;SDS011;3307;52.416;16.862;2023-03-23T13:36:37;4.20;;;2.80;;
6547;SDS011;3307;52.416;16.862;2023-03-23T13:39:06;3.10;;;2.80;;
6547;SDS011;3307;52.416;16.862;2023-03-23T13:49:56;2.60;;;2.40;;
6547;SDS011;3307;52.416;16.862;2023-03-23T13:52:24;5.87;;;3.10;;
6547;SDS011;3307;52.416;16.862;2023-03-23T14:08:36;4.60;;;3.97;;
6547;SDS011;3307;52.416;16.862;2023-03-23T14:19:21;5.00;;;3.37;;
6547;SDS011;3307;52.416;16.862;2023-03-23T14:21:54;9.23;;;3.50;;
6547;SDS011;3307;52.416;16.862;2023-03-23T14:24:26;3.47;;;2.80;;
6547;SDS011;3307;52.416;16.862;2023-03-23T14:27:01;3.87;;;3.17;;
6547;SDS011;3307;52.416;16.862;2023-03-23T14:29:33;5.33;;;3.70;;
6547;SDS011;3307;52.416;16.862;2023-03-23T14:31:58;5.07;;;3.47;;
6547;SDS011;3307;52.416;16.862;2023-03-23T14:34:25;8.17;;;3.60;;
6547;SDS011;3307;52.416;16.862;2023-03-23T14:36:55;5.13;;;3.23;;
6547;SDS011;3307;52.416;16.862;2023-03-23T14:39:33;4.53;;;3.57;;
6547;SDS011;3307;52.416;16.862;2023-03-23T14:42:29;4.67;;;3.53;;
6547;SDS011;3307;52.416;16.862;2023-03-23T14:44:54;3.80;;;3.40;;
6547;SDS011;3307;52.416;16.862;2023-03-23T14:47:21;4.93;;;3.20;;
6547;SDS011;3307;52.416;16.862;2023-03-23T14:49:53;5.37;;;3.67;;
6547;SDS011;3307;52.416;16.862;2023-03-23T14:52:21;4.43;;;3.40;;
6547;SDS011;3307;52.416;16.862;2023-03-23T14:54:48;8.63;;;4.13;;
6547;SDS011;3307;52.416;16.862;2023-03-23T14:59:42;5.97;;;3.87;;
6547;SDS011;3307;52.416;16.862;2023-03-23T15:02:10;5.63;;;4.43;;
6547;SDS011;3307;52.416;16.862;2023-03-23T15:04:38;7.50;;;5.57;;
6547;SDS011;3307;52.416;16.862;2023-03-23T15:07:04;5.70;;;5.20;;
6547;SDS011;3307;52.416;16.862;2023-03-23T15:09:30;6.07;;;5.47;;
6547;SDS011;3307;52.416;16.862;2023-03-23T15:15:06;5.27;;;4.77;;
6547;SDS011;3307;52.416;16.862;2023-03-23T15:17:20;6.50;;;3.50;;
6547;SDS011;3307;52.416;16.862;2023-03-23T15:19:47;5.57;;;4.03;;
6547;SDS011;3307;52.416;16.862;2023-03-23T15:25:12;7.07;;;5.70;;
6547;SDS011;3307;52.416;16.862;2023-03-23T15:27:53;5.67;;;5.03;;
6547;SDS011;3307;52.416;16.862;2023-03-23T15:32:53;8.77;;;6.77;;
6547;SDS011;3307;52.416;16.862;2023-03-23T15:35:22;6.80;;;5.93;;
6547;SDS011;3307;52.416;16.862;2023-03-23T15:37:51;5.00;;;4.50;;
6547;SDS011;3307;52.416;16.862;2023-03-23T15:40:20;5.07;;;4.40;;
6547;SDS011;3307;52.416;16.862;2023-03-23T15:42:47;4.03;;;3.73;;
6547;SDS011;3307;52.416;16.862;2023-03-23T15:50:20;4.67;;;3.90;;
6547;SDS011;3307;52.416;16.862;2023-03-23T15:52:58;6.00;;;4.13;;
6547;SDS011;3307;52.416;16.862;2023-03-23T15:55:28;5.40;;;4.50;;
6547;SDS011;3307;52.416;16.862;2023-03-23T15:57:56;7.40;;;4.80;;
6547;SDS011;3307;52.416;16.862;2023-03-23T16:00:24;4.33;;;3.93;;
6547;SDS011;3307;52.416;16.862;2023-03-23T16:02:55;5.80;;;5.20;;
6547;SDS011;3307;52.416;16.862;2023-03-23T16:05:23;6.00;;;5.33;;
6547;SDS011;3307;52.416;16.862;2023-03-23T16:07:49;6.20;;;5.10;;
6547;SDS011;3307;52.416;16.862;2023-03-23T16:10:16;8.43;;;6.00;;
6547;SDS011;3307;52.416;16.862;2023-03-23T16:12:43;9.47;;;6.03;;
6547;SDS011;3307;52.416;16.862;2023-03-23T16:15:09;9.80;;;6.80;;
6547;SDS011;3307;52.416;16.862;2023-03-23T16:17:35;9.63;;;7.80;;
6547;SDS011;3307;52.416;16.862;2023-03-23T16:20:01;10.20;;;7.23;;
6547;SDS011;3307;52.416;16.862;2023-03-23T16:22:28;6.68;;;5.97;;
6547;SDS011;3307;52.416;16.862;2023-03-23T16:24:53;9.60;;;6.73;;
6547;SDS011;3307;52.416;16.862;2023-03-23T16:27:19;7.63;;;6.67;;
6547;SDS011;3307;52.416;16.862;2023-03-23T16:29:45;7.63;;;6.68;;
6547;SDS011;3307;52.416;16.862;2023-03-23T16:32:11;9.87;;;7.50;;
6547;SDS011;3307;52.416;16.862;2023-03-23T16:34:36;9.20;;;8.10;;
6547;SDS011;3307;52.416;16.862;2023-03-23T16:37:03;8.40;;;7.60;;
6547;SDS011;3307;52.416;16.862;2023-03-23T16:39:28;12.00;;;9.00;;
6547;SDS011;3307;52.416;16.862;2023-03-23T16:41:54;11.37;;;8.80;;
6547;SDS011;3307;52.416;16.862;2023-03-23T16:44:19;12.97;;;9.00;;
6547;SDS011;3307;52.416;16.862;2023-03-23T16:46:45;10.17;;;8.20;;
6547;SDS011;3307;52.416;16.862;2023-03-23T16:49:10;11.17;;;8.17;;
6547;SDS011;3307;52.416;16.862;2023-03-23T16:51:36;10.70;;;9.23;;
6547;SDS011;3307;52.416;16.862;2023-03-23T16:54:01;9.83;;;7.90;;
6547;SDS011;3307;52.416;16.862;2023-03-23T16:56:26;11.23;;;8.53;;
6547;SDS011;3307;52.416;16.862;2023-03-23T16:58:52;7.90;;;7.17;;
6547;SDS011;3307;52.416;16.862;2023-03-23T17:01:17;9.40;;;6.60;;
6547;SDS011;3307;52.416;16.862;2023-03-23T17:03:43;8.30;;;7.40;;
6547;SDS011;3307;52.416;16.862;2023-03-23T17:06:09;10.60;;;8.90;;
6547;SDS011;3307;52.416;16.862;2023-03-23T17:08:35;7.80;;;7.00;;
6547;SDS011;3307;52.416;16.862;2023-03-23T17:11:00;9.30;;;7.97;;
6547;SDS011;3307;52.416;16.862;2023-03-23T17:13:25;9.23;;;7.57;;
6547;SDS011;3307;52.416;16.862;2023-03-23T17:15:52;9.30;;;7.13;;
6547;SDS011;3307;52.416;16.862;2023-03-23T17:18:19;8.38;;;6.88;;
6547;SDS011;3307;52.416;16.862;2023-03-23T17:20:45;9.83;;;6.30;;
6547;SDS011;3307;52.416;16.862;2023-03-23T17:23:10;11.40;;;8.50;;
6547;SDS011;3307;52.416;16.862;2023-03-23T17:25:36;10.37;;;8.10;;
6547;SDS011;3307;52.416;16.862;2023-03-23T17:28:01;11.33;;;6.70;;
6547;SDS011;3307;52.416;16.862;2023-03-23T17:30:27;8.87;;;7.57;;
6547;SDS011;3307;52.416;16.862;2023-03-23T17:32:52;15.97;;;9.03;;
6547;SDS011;3307;52.416;16.862;2023-03-23T17:35:18;18.27;;;11.63;;
6547;SDS011;3307;52.416;16.862;2023-03-23T17:37:43;10.37;;;9.07;;
6547;SDS011;3307;52.416;16.862;2023-03-23T17:40:09;14.67;;;8.30;;
6547;SDS011;3307;52.416;16.862;2023-03-23T17:42:36;12.98;;;10.38;;